Portada
METAR-TAF:

METAR-TAF

Aeroports :

Gladstone, Austràlia

latitud: 23-52-11S, longitud: 151-13-22E, altitud: 18 m

Observació

L'informe es va fer fa 33 minuts, a les 09:00 UTC
Vent 15 kt del Est
Temperatura 21°C
Humitat 60%
Pressió 1020 hPa
Visibilitat 10 km o més

METAR: YGLA 240900Z AUTO 09015KT 9999 // NCD 21/13 Q1020

Hora: 19:33 (09:33 UTC)

Pronòstic

L'informe es va fer fa 4 hores i 32 minuts, a les 05:01 UTC
Pronòstic vàlid del 24 a les 06 UTC al 24 a les 18 UTC
Vent 15 kt del Est
Visibilitat 10 km o més
sense núvols per sota de 1500 mi sense presència de cumulonimbus.
A partir de les 24 a les 0800 UTC
Vent 10 kt del Est
Visibilitat 10 km o més
Escasses núvols a una alçada de 3000 ft
A partir de les 24 a les 1400 UTC
Vent 7 kt del Sud-Est
Visibilitat 10 km o més
Núvols disperses a una alçada de 2500 ft

TAF: YGLA 240501Z 2406/2418 09015KT CAVOK FM240800 10010KT 9999 FEW030 FM241400 13007KT 9999 SCT025

Observacions i pronòstics meteorològics de més de 4000 aeroports (METAR i TAF).

Les estacions disponibles són els punts grocs i vermells al mapa.

Posi el ratolí al punt desitjat per veure el nom de l'estació.

Feu clic per veure les observacions i els pronòstics meteorològics.

Per canviar el mapa: feu clic els botons verds amb una creu de color negre per apropar; al botó verd amb un guió per allunyar la imatge; o en les fletxes verdes per a mapes adjacents.


METAR-TAF: